• Join FlightAware (Why Join?)
  • Login
  • US Flag 
06:14AM EDT


 

Airport Tracker/Info


-or-


 

Live Flight TrackerFlight Track Log ✈ SKW4444 ✈ 23-Apr-2013 ✈ KSLC - KOKC

Flight Track Log - Related Links

Times and Time Zones

All times are in EDT time to prevent confusion due to time zone crossing. See the SKW4444 flight status page for this flight to view local times or setup timezone preferences in your user account.

Time Position Orientation Groundspeed Altitude Reporting Facility
EDT Latitude Longitude Course Direction KTS MPH feet Rate Location/Type
10:13PM 40.8142 -111.9625 159° South 190 219 5,200  Level Salt Lake Center
10:13PM 40.8408 -111.9678 351° North 200 230 5,900 2,400 Climbing Salt Lake Center
10:14PM 40.9100 -111.9767 354° North 224 258 9,000 2,640 Climbing Salt Lake Center
10:15PM 40.9517 -111.9306 40° Northeast 244 281 11,500 1,680 Climbing Salt Lake Center
10:16PM 41.1239 -111.7956 108° East  Level FlightAware Approximate
10:16PM 40.9256 -111.8408 111° Southeast 279 321 12,500  Level Salt Lake Center
10:17PM 41.0294 -111.7146 159° South  Level FlightAware Approximate
10:17PM 40.8911 -111.7264 112° Southeast 343 395 13,900  Level Salt Lake Center
10:18PM 40.9182 -111.6590 159° South  Level FlightAware Approximate
10:18PM 40.8531 -111.6014 112° Southeast 369 425 15,800  Level Salt Lake Center
10:19PM 40.8133 -111.4694 112° Southeast 387 445 17,800 1,800 Climbing Salt Lake Center
10:20PM 40.7711 -111.3033 109° East 401 461 19,500 1,560 Climbing Salt Lake Center
10:21PM 40.7375 -111.1553 107° East 417 480 21,000 1,440 Climbing Salt Lake Center
10:23PM 40.7019 -111.0008 107° East 435 501 22,500 1,380 Climbing Salt Lake Center
10:24PM 40.6656 -110.8419 107° East 451 519 23,900 1,260 Climbing Salt Lake Center
10:25PM 40.6275 -110.6800 107° East 464 534 25,100 1,200 Climbing Salt Lake Center
10:26PM 40.5867 -110.5036 107° East 478 550 26,400 1,200 Climbing Salt Lake Center
10:27PM 40.5467 -110.3333 107° East 486 559 27,600 1,140 Climbing Salt Lake Center
10:28PM 40.5078 -110.1375 105° East 494 568 28,800 1,020 Climbing Salt Lake Center
10:29PM 40.4758 -109.9669 104° East 501 577 29,700 840 Climbing Salt Lake Center
10:30PM 40.4422 -109.7939 104° East 509 586 30,600 720 Climbing Salt Lake Center
10:31PM 40.4028 -109.5864 104° East 522 601 31,200 540 Climbing Salt Lake Center
10:32PM 40.3664 -109.4053 105° East 533 613 31,800 600 Climbing Salt Lake Center
10:33PM 40.3247 -109.1900 104° East 542 624 32,500 780 Climbing Salt Lake Center
10:34PM 40.2878 -109.0044 105° East 547 629 33,400 1,080 Climbing Salt Lake Center
10:35PM 40.2517 -108.8231 105° East 538 619 34,800 1,500 Climbing Salt Lake Center
10:36PM 40.2103 -108.6169 105° East 524 603 36,500 1,020 Climbing Salt Lake Center
10:37PM 40.1764 -108.4481 105° East 506 582 37,000 180 Climbing Salt Lake Center
10:38PM 40.1336 -108.2419 105° East 514 592 37,000  Level Denver Center
10:39PM 40.0903 -108.0350 105° East 525 604 37,000  Level Denver Center
10:40PM 40.0433 -107.8597 109° East 533 613 37,000  Level Denver Center
10:41PM 39.9769 -107.6939 118° Southeast 536 617 37,000  Level Denver Center
10:42PM 39.9000 -107.5019 118° Southeast 535 616 37,000  Level Denver Center
10:43PM 39.8333 -107.3364 118° Southeast 537 618 37,000  Level Denver Center
10:44PM 39.7578 -107.1494 118° Southeast 536 617 37,000  Level Denver Center
10:45PM 39.6869 -106.9756 118° Southeast 537 618 37,000  Level Denver Center
10:46PM 39.6203 -106.8164 118° Southeast 538 619 37,000  Level Denver Center
10:47PM 39.5464 -106.6269 117° Southeast 530 610 37,000  Level Denver Center
10:48PM 39.4753 -106.4547 118° Southeast 534 615 37,000  Level Denver Center
10:49PM 39.4119 -106.3008 118° Southeast 535 616 37,000  Level Denver Center
10:50PM 39.3331 -106.1169 119° Southeast 533 613 37,000  Level Denver Center
10:51PM 39.2644 -105.9481 118° Southeast 529 609 37,100  Climbing Denver Center
10:52PM 39.1928 -105.7819 119° Southeast 528 608 37,000 -60 Descending Denver Center
10:53PM 39.1231 -105.6139 118° Southeast 529 609 37,000  Level Denver Center
10:54PM 39.0519 -105.4458 119° Southeast 532 612 37,000  Level Denver Center
10:55PM 38.9803 -105.2789 119° Southeast 530 610 37,000  Level Denver Center
10:56PM 38.9081 -105.1114 119° Southeast 533 613 37,000  Level Denver Center
10:57PM 38.8358 -104.9433 119° Southeast 535 616 37,100  Climbing Denver Center
10:58PM 38.7514 -104.7492 119° Southeast 531 611 37,000  Descending Denver Center
10:59PM 38.6797 -104.5825 119° Southeast 529 609 37,100  Climbing Denver Center
11:00PM 38.6064 -104.4147 119° Southeast 535 616 37,000 -60 Descending Denver Center
11:01PM 38.5314 -104.2478 120° Southeast 536 617 37,000  Level Denver Center
11:03PM 38.4611 -104.0908 120° Southeast 539 620 37,000  Level Denver Center
11:04PM 38.3769 -103.9047 120° Southeast 541 623 37,000  Level Denver Center
11:05PM 38.3050 -103.7425 119° Southeast 546 628 37,100  Climbing Denver Center
11:06PM 38.2331 -103.5819 120° Southeast 544 626 37,000 -60 Descending Denver Center
11:07PM 38.1475 -103.3950 120° Southeast 546 628 37,000  Level Denver Center
11:08PM 38.0750 -103.2347 120° Southeast 545 627 37,000  Level Denver Center
11:09PM 38.0028 -103.0767 120° Southeast 540 621 37,000  Level Denver Center
11:10PM 37.9186 -102.8942 120° Southeast 535 616 37,000  Level Denver Center
11:11PM 37.8472 -102.7400 120° Southeast 530 610 37,000  Level Denver Center
11:12PM 37.7750 -102.5853 121° Southeast 530 610 37,000  Level Denver Center
11:13PM 37.6978 -102.4219 121° Southeast 527 606 37,100  Climbing Denver Center
11:14PM 37.6147 -102.2444 121° Southeast 527 606 37,000 -60 Descending Denver Center
11:15PM 37.5417 -102.0964 122° Southeast 522 601 37,000  Level Denver Center
11:16PM 37.4686 -101.9483 122° Southeast 520 598 37,000  Level Denver Center
11:17PM 37.4064 -101.8267 123° Southeast 520 598 37,000  Level Kansas City Center
11:18PM 37.3206 -101.6553 122° Southeast 520 598 37,000  Level Kansas City Center
11:19PM 37.2475 -101.5083 122° Southeast 521 600 37,000  Level Kansas City Center
11:20PM 37.1622 -101.3383 122° Southeast 520 598 37,000  Level Kansas City Center
11:21PM 37.0875 -101.1936 123° Southeast 520 598 37,000  Level Kansas City Center
11:22PM 37.0150 -101.0486 122° Southeast 518 596 37,000  Level Kansas City Center
11:23PM 36.9286 -100.8811 123° Southeast 517 595 37,000  Level Kansas City Center
11:24PM 36.8542 -100.7353 123° Southeast 520 598 37,000  Level Kansas City Center
11:25PM 36.7683 -100.5661 122° Southeast 520 598 37,000  Level Kansas City Center
11:26PM 36.6917 -100.4222 124° Southeast 521 600 37,000  Level Kansas City Center
11:27PM 36.6192 -100.2822 123° Southeast 523 602 37,000  Level Kansas City Center
11:28PM 36.5406 -100.1292 123° Southeast 524 603 37,000  Level Kansas City Center
11:29PM 36.4642 -99.9803 123° Southeast 514 592 37,000  Level Kansas City Center
11:30PM 36.3692 -99.8058 124° Southeast 508 585 37,000  Level Kansas City Center
11:31PM 36.2911 -99.6583 123° Southeast 510 587 37,000  Level Kansas City Center
11:32PM 36.2125 -99.5100 123° Southeast 512 589 37,000 -300 Level Kansas City Center
11:33PM 36.1381 -99.3711 124° Southeast 515 593 36,400 -1,680 Descending Kansas City Center
11:34PM 36.0608 -99.2219 123° Southeast 515 593 33,600 -3,120 Descending Kansas City Center
11:35PM 35.9956 -99.0656 117° Southeast 514 592 30,000 -3,420 Descending Kansas City Center
11:36PM 35.9297 -98.9086 117° Southeast 516 594 26,700 -3,360 Descending Kansas City Center
11:37PM 35.8656 -98.7606 118° Southeast 499 574 23,200 -3,720 Descending Kansas City Center
11:37PM 35.8314 -98.6833 119° Southeast 492 566 21,200 -3,660 Descending Fort Worth Center
11:38PM 35.7703 -98.5442 118° Southeast 471 542 17,900 -3,480 Descending Fort Worth Center
11:39PM 35.7436 -98.4875 120° Southeast 444 511 16,400 -3,660 Descending Fort Worth Center
11:39PM 35.7128 -98.4181 119° Southeast 431 496 14,700 -3,120 Descending Fort Worth Center
11:40PM 35.6594 -98.2975 119° Southeast 397 457 11,700 -2,400 Descending Fort Worth Center
11:41PM 35.6081 -98.1819 119° Southeast 376 433 9,900 -1,560 Descending Fort Worth Center
11:42PM 35.5669 -98.0847 117° Southeast 317 365 8,600 -1,200 Descending Fort Worth Center
11:43PM 35.5258 -97.9950 119° Southeast 290 334 7,600 -960 Descending Fort Worth Center
11:44PM 35.4781 -97.9131 126° Southeast 299 344 6,700 -1,260 Descending Fort Worth Center
11:45PM 35.4264 -97.8289 127° Southeast 288 331 5,100 -1,380 Descending Fort Worth Center
11:46PM 35.3850 -97.7572 125° Southeast 262 302 4,000 -660 Descending Fort Worth Center
11:47PM 35.3475 -97.6986 128° Southeast 189 217 3,800 -480 Descending Fort Worth Center
11:48PM 35.3247 -97.6528 121° Southeast 208 239 3,100 -720 Descending Fort Worth Center